sensor_id;sensor_type;location;lat;lon;timestamp;temperature;humidity
76040;SHT30;64736;50.462;4.850;2022-12-07T00:00:28;4.99;91.14
76040;SHT30;64736;50.462;4.850;2022-12-07T00:02:53;4.99;91.11
76040;SHT30;64736;50.462;4.850;2022-12-07T00:05:19;4.99;91.11
76040;SHT30;64736;50.462;4.850;2022-12-07T00:07:44;5.00;90.85
76040;SHT30;64736;50.462;4.850;2022-12-07T00:10:10;4.99;90.89
76040;SHT30;64736;50.462;4.850;2022-12-07T00:12:36;4.99;91.04
76040;SHT30;64736;50.462;4.850;2022-12-07T00:15:01;5.00;90.89
76040;SHT30;64736;50.462;4.850;2022-12-07T00:17:27;4.96;90.98
76040;SHT30;64736;50.462;4.850;2022-12-07T00:19:53;4.92;91.23
76040;SHT30;64736;50.462;4.850;2022-12-07T00:22:18;4.92;91.29
76040;SHT30;64736;50.462;4.850;2022-12-07T00:24:44;4.93;91.18
76040;SHT30;64736;50.462;4.850;2022-12-07T00:27:09;4.93;91.10
76040;SHT30;64736;50.462;4.850;2022-12-07T00:29:35;4.90;91.17
76040;SHT30;64736;50.462;4.850;2022-12-07T00:32:02;4.94;91.20
76040;SHT30;64736;50.462;4.850;2022-12-07T00:34:28;4.90;91.33
76040;SHT30;64736;50.462;4.850;2022-12-07T00:36:54;4.87;91.22
76040;SHT30;64736;50.462;4.850;2022-12-07T00:39:19;4.86;91.29
76040;SHT30;64736;50.462;4.850;2022-12-07T00:41:45;4.83;91.43
76040;SHT30;64736;50.462;4.850;2022-12-07T00:44:10;4.84;91.21
76040;SHT30;64736;50.462;4.850;2022-12-07T00:46:36;4.87;91.18
76040;SHT30;64736;50.462;4.850;2022-12-07T00:49:02;4.86;91.18
76040;SHT30;64736;50.462;4.850;2022-12-07T00:51:27;4.80;91.32
76040;SHT30;64736;50.462;4.850;2022-12-07T00:53:53;4.84;91.33
76040;SHT30;64736;50.462;4.850;2022-12-07T00:56:25;4.86;91.25
76040;SHT30;64736;50.462;4.850;2022-12-07T01:01:17;4.90;91.21
76040;SHT30;64736;50.462;4.850;2022-12-07T01:03:43;4.86;91.43
76040;SHT30;64736;50.462;4.850;2022-12-07T01:06:09;4.90;91.35
76040;SHT30;64736;50.462;4.850;2022-12-07T01:08:34;4.87;91.53
76040;SHT30;64736;50.462;4.850;2022-12-07T01:11:03;4.82;91.77
76040;SHT30;64736;50.462;4.850;2022-12-07T01:13:30;4.83;91.72
76040;SHT30;64736;50.462;4.850;2022-12-07T01:16:00;4.86;91.55
76040;SHT30;64736;50.462;4.850;2022-12-07T01:18:28;4.84;91.67
76040;SHT30;64736;50.462;4.850;2022-12-07T01:21:02;4.86;91.71
76040;SHT30;64736;50.462;4.850;2022-12-07T01:23:29;4.94;91.45
76040;SHT30;64736;50.462;4.850;2022-12-07T01:25:59;4.94;91.56
76040;SHT30;64736;50.462;4.850;2022-12-07T01:28:26;4.92;91.73
76040;SHT30;64736;50.462;4.850;2022-12-07T01:31:00;4.96;91.53
76040;SHT30;64736;50.462;4.850;2022-12-07T01:33:28;4.96;91.54
76040;SHT30;64736;50.462;4.850;2022-12-07T01:36:00;4.96;91.49
76040;SHT30;64736;50.462;4.850;2022-12-07T01:38:26;5.00;91.55
76040;SHT30;64736;50.462;4.850;2022-12-07T01:40:56;4.99;91.43
76040;SHT30;64736;50.462;4.850;2022-12-07T01:43:23;4.99;91.38
76040;SHT30;64736;50.462;4.850;2022-12-07T01:45:49;4.96;91.47
76040;SHT30;64736;50.462;4.850;2022-12-07T01:48:17;4.97;91.44
76040;SHT30;64736;50.462;4.850;2022-12-07T01:50:48;4.92;91.63
76040;SHT30;64736;50.462;4.850;2022-12-07T01:53:16;4.79;92.07
76040;SHT30;64736;50.462;4.850;2022-12-07T01:55:45;4.97;91.52
76040;SHT30;64736;50.462;4.850;2022-12-07T01:58:13;4.77;91.90
76040;SHT30;64736;50.462;4.850;2022-12-07T02:00:40;5.10;90.94
76040;SHT30;64736;50.462;4.850;2022-12-07T02:05:40;5.10;90.62
76040;SHT30;64736;50.462;4.850;2022-12-07T02:08:07;5.07;90.81
76040;SHT30;64736;50.462;4.850;2022-12-07T02:10:33;5.04;90.91
76040;SHT30;64736;50.462;4.850;2022-12-07T02:13:13;5.03;91.06
76040;SHT30;64736;50.462;4.850;2022-12-07T02:18:21;4.97;91.04
76040;SHT30;64736;50.462;4.850;2022-12-07T02:21:09;5.00;91.06
76040;SHT30;64736;50.462;4.850;2022-12-07T02:23:55;5.01;91.01
76040;SHT30;64736;50.462;4.850;2022-12-07T02:35:28;5.00;90.82
76040;SHT30;64736;50.462;4.850;2022-12-07T02:37:51;4.94;90.84
76040;SHT30;64736;50.462;4.850;2022-12-07T02:40:23;4.87;91.34
76040;SHT30;64736;50.462;4.850;2022-12-07T02:45:43;4.86;91.17
76040;SHT30;64736;50.462;4.850;2022-12-07T02:48:12;4.87;91.08
76040;SHT30;64736;50.462;4.850;2022-12-07T02:50:39;4.84;91.34
76040;SHT30;64736;50.462;4.850;2022-12-07T02:53:04;4.97;90.85
76040;SHT30;64736;50.462;4.850;2022-12-07T02:55:39;5.01;90.91
76040;SHT30;64736;50.462;4.850;2022-12-07T02:58:17;5.03;90.59
76040;SHT30;64736;50.462;4.850;2022-12-07T03:04:23;5.04;90.96
76040;SHT30;64736;50.462;4.850;2022-12-07T03:06:54;4.96;90.69
76040;SHT30;64736;50.462;4.850;2022-12-07T03:09:49;4.99;90.99
76040;SHT30;64736;50.462;4.850;2022-12-07T03:12:20;4.99;90.77
76040;SHT30;64736;50.462;4.850;2022-12-07T03:15:00;4.97;90.93
76040;SHT30;64736;50.462;4.850;2022-12-07T03:17:29;4.96;90.93
76040;SHT30;64736;50.462;4.850;2022-12-07T03:19:59;5.07;90.56
76040;SHT30;64736;50.462;4.850;2022-12-07T03:22:25;5.06;90.61
76040;SHT30;64736;50.462;4.850;2022-12-07T03:24:59;5.04;90.44
76040;SHT30;64736;50.462;4.850;2022-12-07T03:27:31;4.99;90.54
76040;SHT30;64736;50.462;4.850;2022-12-07T03:30:10;4.96;90.75
76040;SHT30;64736;50.462;4.850;2022-12-07T03:33:01;4.86;91.27
76040;SHT30;64736;50.462;4.850;2022-12-07T03:35:47;4.93;90.92
76040;SHT30;64736;50.462;4.850;2022-12-07T03:38:43;4.55;92.35
76040;SHT30;64736;50.462;4.850;2022-12-07T03:41:20;4.42;93.53
76040;SHT30;64736;50.462;4.850;2022-12-07T03:43:47;4.76;92.87
76040;SHT30;64736;50.462;4.850;2022-12-07T03:51:47;4.93;90.73
76040;SHT30;64736;50.462;4.850;2022-12-07T03:54:34;4.93;90.80
76040;SHT30;64736;50.462;4.850;2022-12-07T03:57:02;4.93;90.91
76040;SHT30;64736;50.462;4.850;2022-12-07T03:59:30;4.89;91.10
76040;SHT30;64736;50.462;4.850;2022-12-07T04:01:59;4.87;91.38
76040;SHT30;64736;50.462;4.850;2022-12-07T04:04:27;4.89;91.63
76040;SHT30;64736;50.462;4.850;2022-12-07T04:06:53;4.92;91.39
76040;SHT30;64736;50.462;4.850;2022-12-07T04:09:20;4.94;91.24
76040;SHT30;64736;50.462;4.850;2022-12-07T04:11:45;4.75;91.76
76040;SHT30;64736;50.462;4.850;2022-12-07T04:14:11;4.93;91.22
76040;SHT30;64736;50.462;4.850;2022-12-07T04:16:47;4.93;90.99
76040;SHT30;64736;50.462;4.850;2022-12-07T04:19:14;4.94;90.99
76040;SHT30;64736;50.462;4.850;2022-12-07T04:21:41;4.97;90.95
76040;SHT30;64736;50.462;4.850;2022-12-07T04:24:07;4.90;91.08
76040;SHT30;64736;50.462;4.850;2022-12-07T04:26:33;4.83;91.20
76040;SHT30;64736;50.462;4.850;2022-12-07T04:28:59;4.82;91.97
76040;SHT30;64736;50.462;4.850;2022-12-07T04:31:24;4.73;92.87
76040;SHT30;64736;50.462;4.850;2022-12-07T04:33:50;4.62;92.93
76040;SHT30;64736;50.462;4.850;2022-12-07T04:36:16;4.69;93.04
76040;SHT30;64736;50.462;4.850;2022-12-07T04:38:42;4.66;92.86
76040;SHT30;64736;50.462;4.850;2022-12-07T04:41:08;4.66;92.37
76040;SHT30;64736;50.462;4.850;2022-12-07T04:43:35;4.56;93.79
76040;SHT30;64736;50.462;4.850;2022-12-07T04:46:01;4.69;92.45
76040;SHT30;64736;50.462;4.850;2022-12-07T04:48:27;4.73;92.32
76040;SHT30;64736;50.462;4.850;2022-12-07T04:50:53;4.73;92.26
76040;SHT30;64736;50.462;4.850;2022-12-07T04:53:18;4.75;91.79
76040;SHT30;64736;50.462;4.850;2022-12-07T04:55:45;4.73;91.77
76040;SHT30;64736;50.462;4.850;2022-12-07T04:58:11;4.71;91.94
76040;SHT30;64736;50.462;4.850;2022-12-07T05:00:37;4.79;91.77
76040;SHT30;64736;50.462;4.850;2022-12-07T05:03:03;4.75;91.77
76040;SHT30;64736;50.462;4.850;2022-12-07T05:05:29;4.75;91.74
76040;SHT30;64736;50.462;4.850;2022-12-07T05:07:55;4.75;91.76
76040;SHT30;64736;50.462;4.850;2022-12-07T05:10:21;4.72;91.85
76040;SHT30;64736;50.462;4.850;2022-12-07T05:12:46;4.66;92.04
76040;SHT30;64736;50.462;4.850;2022-12-07T05:15:14;4.62;92.33
76040;SHT30;64736;50.462;4.850;2022-12-07T05:17:40;4.77;91.63
76040;SHT30;64736;50.462;4.850;2022-12-07T05:20:06;4.73;91.46
76040;SHT30;64736;50.462;4.850;2022-12-07T05:22:32;4.65;91.58
76040;SHT30;64736;50.462;4.850;2022-12-07T05:24:58;4.65;92.04
76040;SHT30;64736;50.462;4.850;2022-12-07T05:27:23;4.65;92.24
76040;SHT30;64736;50.462;4.850;2022-12-07T05:29:50;4.68;92.10
76040;SHT30;64736;50.462;4.850;2022-12-07T05:32:16;4.72;92.04
76040;SHT30;64736;50.462;4.850;2022-12-07T05:34:42;4.72;91.96
76040;SHT30;64736;50.462;4.850;2022-12-07T05:37:07;4.75;91.85
76040;SHT30;64736;50.462;4.850;2022-12-07T05:39:33;4.77;91.75
76040;SHT30;64736;50.462;4.850;2022-12-07T05:41:59;4.83;91.69
76040;SHT30;64736;50.462;4.850;2022-12-07T05:44:40;4.77;91.51
76040;SHT30;64736;50.462;4.850;2022-12-07T05:47:06;4.79;91.82
76040;SHT30;64736;50.462;4.850;2022-12-07T05:49:32;4.73;92.17
76040;SHT30;64736;50.462;4.850;2022-12-07T05:51:58;4.73;91.93
76040;SHT30;64736;50.462;4.850;2022-12-07T05:54:24;4.80;91.71
76040;SHT30;64736;50.462;4.850;2022-12-07T05:56:50;4.75;91.72
76040;SHT30;64736;50.462;4.850;2022-12-07T05:59:15;4.77;91.95
76040;SHT30;64736;50.462;4.850;2022-12-07T06:01:49;4.69;91.99
76040;SHT30;64736;50.462;4.850;2022-12-07T06:04:15;4.71;92.03
76040;SHT30;64736;50.462;4.850;2022-12-07T06:06:41;4.73;91.86
76040;SHT30;64736;50.462;4.850;2022-12-07T06:09:06;4.59;92.10
76040;SHT30;64736;50.462;4.850;2022-12-07T06:11:32;4.73;91.85
76040;SHT30;64736;50.462;4.850;2022-12-07T06:14:16;4.76;91.71
76040;SHT30;64736;50.462;4.850;2022-12-07T06:16:42;4.69;91.79
76040;SHT30;64736;50.462;4.850;2022-12-07T06:19:08;4.79;91.18
76040;SHT30;64736;50.462;4.850;2022-12-07T06:21:33;4.75;91.88
76040;SHT30;64736;50.462;4.850;2022-12-07T06:23:59;4.82;91.23
76040;SHT30;64736;50.462;4.850;2022-12-07T06:26:25;4.61;92.32
76040;SHT30;64736;50.462;4.850;2022-12-07T06:28:51;4.56;92.75
76040;SHT30;64736;50.462;4.850;2022-12-07T06:31:17;4.75;92.08
76040;SHT30;64736;50.462;4.850;2022-12-07T06:33:43;4.71;91.33
76040;SHT30;64736;50.462;4.850;2022-12-07T06:36:09;4.62;92.92
76040;SHT30;64736;50.462;4.850;2022-12-07T06:38:35;4.84;92.37
76040;SHT30;64736;50.462;4.850;2022-12-07T06:41:01;5.01;90.36
76040;SHT30;64736;50.462;4.850;2022-12-07T06:43:26;4.58;91.79
76040;SHT30;64736;50.462;4.850;2022-12-07T06:45:52;4.96;91.62
76040;SHT30;64736;50.462;4.850;2022-12-07T06:48:18;5.00;90.37
76040;SHT30;64736;50.462;4.850;2022-12-07T06:50:45;4.96;90.42
76040;SHT30;64736;50.462;4.850;2022-12-07T06:53:11;4.94;90.84
76040;SHT30;64736;50.462;4.850;2022-12-07T06:55:37;4.93;90.78
76040;SHT30;64736;50.462;4.850;2022-12-07T06:58:03;4.86;91.38
76040;SHT30;64736;50.462;4.850;2022-12-07T07:00:29;4.82;91.43
76040;SHT30;64736;50.462;4.850;2022-12-07T07:02:55;4.71;92.25
76040;SHT30;64736;50.462;4.850;2022-12-07T07:05:21;4.86;91.60
76040;SHT30;64736;50.462;4.850;2022-12-07T07:07:48;4.84;90.96
76040;SHT30;64736;50.462;4.850;2022-12-07T07:10:14;4.80;91.40
76040;SHT30;64736;50.462;4.850;2022-12-07T07:12:40;4.80;92.21
76040;SHT30;64736;50.462;4.850;2022-12-07T07:15:06;4.75;92.24
76040;SHT30;64736;50.462;4.850;2022-12-07T07:17:32;4.76;91.97
76040;SHT30;64736;50.462;4.850;2022-12-07T07:19:58;4.72;92.04
76040;SHT30;64736;50.462;4.850;2022-12-07T07:22:23;4.77;92.09
76040;SHT30;64736;50.462;4.850;2022-12-07T07:24:49;4.71;91.91
76040;SHT30;64736;50.462;4.850;2022-12-07T07:27:15;4.71;92.12
76040;SHT30;64736;50.462;4.850;2022-12-07T07:29:40;4.69;92.52
76040;SHT30;64736;50.462;4.850;2022-12-07T07:32:06;4.51;92.85
76040;SHT30;64736;50.462;4.850;2022-12-07T07:34:33;4.17;94.48
76040;SHT30;64736;50.462;4.850;2022-12-07T07:36:58;4.46;93.36
76040;SHT30;64736;50.462;4.850;2022-12-07T07:39:24;4.55;93.02
76040;SHT30;64736;50.462;4.850;2022-12-07T07:41:50;4.59;92.74
76040;SHT30;64736;50.462;4.850;2022-12-07T07:44:16;4.58;92.67
76040;SHT30;64736;50.462;4.850;2022-12-07T07:46:41;4.68;92.27
76040;SHT30;64736;50.462;4.850;2022-12-07T07:49:09;4.66;92.03
76040;SHT30;64736;50.462;4.850;2022-12-07T07:51:35;4.41;92.79
76040;SHT30;64736;50.462;4.850;2022-12-07T07:54:01;4.41;94.10
76040;SHT30;64736;50.462;4.850;2022-12-07T07:56:26;4.76;91.59
76040;SHT30;64736;50.462;4.850;2022-12-07T07:58:53;4.79;91.44
76040;SHT30;64736;50.462;4.850;2022-12-07T08:01:18;4.75;91.83
76040;SHT30;64736;50.462;4.850;2022-12-07T08:03:47;4.83;91.76
76040;SHT30;64736;50.462;4.850;2022-12-07T08:06:13;4.82;91.75
76040;SHT30;64736;50.462;4.850;2022-12-07T08:08:39;4.76;91.88
76040;SHT30;64736;50.462;4.850;2022-12-07T08:11:06;4.83;91.43
76040;SHT30;64736;50.462;4.850;2022-12-07T08:13:32;4.82;91.36
76040;SHT30;64736;50.462;4.850;2022-12-07T08:15:58;4.77;91.40
76040;SHT30;64736;50.462;4.850;2022-12-07T08:18:24;4.72;91.83
76040;SHT30;64736;50.462;4.850;2022-12-07T08:20:49;4.77;91.36
76040;SHT30;64736;50.462;4.850;2022-12-07T08:23:15;4.86;91.47
76040;SHT30;64736;50.462;4.850;2022-12-07T08:25:41;4.93;91.27
76040;SHT30;64736;50.462;4.850;2022-12-07T08:28:07;4.96;91.12
76040;SHT30;64736;50.462;4.850;2022-12-07T08:30:33;4.96;91.03
76040;SHT30;64736;50.462;4.850;2022-12-07T08:32:58;4.99;91.02
76040;SHT30;64736;50.462;4.850;2022-12-07T08:35:24;4.99;90.67
76040;SHT30;64736;50.462;4.850;2022-12-07T08:37:50;4.38;93.60
76040;SHT30;64736;50.462;4.850;2022-12-07T08:40:17;5.00;91.09
76040;SHT30;64736;50.462;4.850;2022-12-07T08:42:48;5.03;90.62
76040;SHT30;64736;50.462;4.850;2022-12-07T08:45:15;5.10;90.37
76040;SHT30;64736;50.462;4.850;2022-12-07T08:48:06;5.20;90.08
76040;SHT30;64736;50.462;4.850;2022-12-07T08:50:31;5.11;90.31
76040;SHT30;64736;50.462;4.850;2022-12-07T08:52:59;5.17;89.93
76040;SHT30;64736;50.462;4.850;2022-12-07T08:55:26;5.06;90.14
76040;SHT30;64736;50.462;4.850;2022-12-07T08:57:52;5.20;90.23
76040;SHT30;64736;50.462;4.850;2022-12-07T09:00:18;5.23;89.81
76040;SHT30;64736;50.462;4.850;2022-12-07T09:02:45;5.35;89.45
76040;SHT30;64736;50.462;4.850;2022-12-07T09:05:11;5.32;89.30
76040;SHT30;64736;50.462;4.850;2022-12-07T09:07:38;5.24;89.89
76040;SHT30;64736;50.462;4.850;2022-12-07T09:10:05;5.19;89.94
76040;SHT30;64736;50.462;4.850;2022-12-07T09:12:30;5.27;89.95
76040;SHT30;64736;50.462;4.850;2022-12-07T09:14:56;5.32;89.44
76040;SHT30;64736;50.462;4.850;2022-12-07T09:17:22;5.35;89.27
76040;SHT30;64736;50.462;4.850;2022-12-07T09:19:48;5.34;89.45
76040;SHT30;64736;50.462;4.850;2022-12-07T09:22:13;5.47;88.78
76040;SHT30;64736;50.462;4.850;2022-12-07T09:24:39;5.50;88.72
76040;SHT30;64736;50.462;4.850;2022-12-07T09:27:05;5.44;89.07
76040;SHT30;64736;50.462;4.850;2022-12-07T09:29:30;5.40;89.13
76040;SHT30;64736;50.462;4.850;2022-12-07T09:31:56;5.35;89.35
76040;SHT30;64736;50.462;4.850;2022-12-07T09:34:22;5.27;89.82
76040;SHT30;64736;50.462;4.850;2022-12-07T09:36:47;5.04;90.73
76040;SHT30;64736;50.462;4.850;2022-12-07T09:39:13;5.14;91.25
76040;SHT30;64736;50.462;4.850;2022-12-07T09:41:44;5.40;89.84
76040;SHT30;64736;50.462;4.850;2022-12-07T09:44:23;5.34;89.68
76040;SHT30;64736;50.462;4.850;2022-12-07T09:46:50;5.27;90.20
76040;SHT30;64736;50.462;4.850;2022-12-07T09:49:22;5.27;90.05
76040;SHT30;64736;50.462;4.850;2022-12-07T09:54:26;5.21;89.79
76040;SHT30;64736;50.462;4.850;2022-12-07T09:56:52;5.41;89.50
76040;SHT30;64736;50.462;4.850;2022-12-07T09:59:18;5.65;88.90
76040;SHT30;64736;50.462;4.850;2022-12-07T10:01:49;5.65;88.33
76040;SHT30;64736;50.462;4.850;2022-12-07T10:04:16;5.44;88.34
76040;SHT30;64736;50.462;4.850;2022-12-07T10:06:44;5.31;89.83
76040;SHT30;64736;50.462;4.850;2022-12-07T10:09:12;5.52;88.01
76040;SHT30;64736;50.462;4.850;2022-12-07T10:12:10;5.79;87.26
76040;SHT30;64736;50.462;4.850;2022-12-07T10:14:57;5.83;87.40
76040;SHT30;64736;50.462;4.850;2022-12-07T10:22:36;6.09;85.43
76040;SHT30;64736;50.462;4.850;2022-12-07T10:25:18;5.86;86.25
76040;SHT30;64736;50.462;4.850;2022-12-07T10:28:18;5.93;86.87
76040;SHT30;64736;50.462;4.850;2022-12-07T10:31:03;6.28;85.73
76040;SHT30;64736;50.462;4.850;2022-12-07T10:33:51;6.10;86.17
76040;SHT30;64736;50.462;4.850;2022-12-07T10:36:21;6.36;85.66
76040;SHT30;64736;50.462;4.850;2022-12-07T10:38:51;6.45;85.35
76040;SHT30;64736;50.462;4.850;2022-12-07T10:41:18;6.36;85.67
76040;SHT30;64736;50.462;4.850;2022-12-07T10:43:51;6.58;84.23
76040;SHT30;64736;50.462;4.850;2022-12-07T11:02:36;8.26;76.79
76040;SHT30;64736;50.462;4.850;2022-12-07T11:05:18;8.05;77.18
76040;SHT30;64736;50.462;4.850;2022-12-07T11:07:53;7.78;78.00
76040;SHT30;64736;50.462;4.850;2022-12-07T11:10:24;7.81;78.30
76040;SHT30;64736;50.462;4.850;2022-12-07T11:16:02;7.84;78.79
76040;SHT30;64736;50.462;4.850;2022-12-07T11:21:09;7.84;79.44
76040;SHT30;64736;50.462;4.850;2022-12-07T11:24:10;7.74;79.98
76040;SHT30;64736;50.462;4.850;2022-12-07T11:40:40;7.03;82.00
76040;SHT30;64736;50.462;4.850;2022-12-07T11:43:26;6.99;81.91
76040;SHT30;64736;50.462;4.850;2022-12-07T11:46:15;6.78;83.41
76040;SHT30;64736;50.462;4.850;2022-12-07T11:49:03;7.16;83.37
76040;SHT30;64736;50.462;4.850;2022-12-07T11:51:33;6.86;83.66
76040;SHT30;64736;50.462;4.850;2022-12-07T11:54:29;7.17;83.43
76040;SHT30;64736;50.462;4.850;2022-12-07T11:57:03;7.12;83.43
76040;SHT30;64736;50.462;4.850;2022-12-07T11:59:36;7.19;84.65
76040;SHT30;64736;50.462;4.850;2022-12-07T12:02:20;7.15;86.47
76040;SHT30;64736;50.462;4.850;2022-12-07T12:05:06;7.06;87.03
76040;SHT30;64736;50.462;4.850;2022-12-07T12:07:36;6.99;87.78
76040;SHT30;64736;50.462;4.850;2022-12-07T12:15:38;6.30;89.46
76040;SHT30;64736;50.462;4.850;2022-12-07T12:21:28;6.54;91.25
76040;SHT30;64736;50.462;4.850;2022-12-07T12:24:14;6.78;91.78
76040;SHT30;64736;50.462;4.850;2022-12-07T12:26:57;6.84;89.77
76040;SHT30;64736;50.462;4.850;2022-12-07T12:29:32;6.86;89.42
76040;SHT30;64736;50.462;4.850;2022-12-07T12:32:14;7.10;89.19
76040;SHT30;64736;50.462;4.850;2022-12-07T12:43:01;7.72;83.74
76040;SHT30;64736;50.462;4.850;2022-12-07T12:45:32;7.84;84.40
76040;SHT30;64736;50.462;4.850;2022-12-07T12:48:01;7.28;82.24
76040;SHT30;64736;50.462;4.850;2022-12-07T12:50:37;7.31;83.67
76040;SHT30;64736;50.462;4.850;2022-12-07T12:53:16;7.22;83.33
76040;SHT30;64736;50.462;4.850;2022-12-07T12:58:40;6.69;85.37
76040;SHT30;64736;50.462;4.850;2022-12-07T13:03:57;7.33;84.30
76040;SHT30;64736;50.462;4.850;2022-12-07T13:08:53;7.12;83.25
76040;SHT30;64736;50.462;4.850;2022-12-07T13:16:59;7.16;83.57
76040;SHT30;64736;50.462;4.850;2022-12-07T13:25:19;6.75;83.36
76040;SHT30;64736;50.462;4.850;2022-12-07T13:28:37;6.84;83.14
76040;SHT30;64736;50.462;4.850;2022-12-07T13:33:28;6.91;81.49
76040;SHT30;64736;50.462;4.850;2022-12-07T13:35:54;6.89;81.75
76040;SHT30;64736;50.462;4.850;2022-12-07T13:38:33;6.82;81.50
76040;SHT30;64736;50.462;4.850;2022-12-07T13:49:01;6.84;82.39
76040;SHT30;64736;50.462;4.850;2022-12-07T13:51:28;6.88;82.63
76040;SHT30;64736;50.462;4.850;2022-12-07T13:54:01;6.85;82.99
76040;SHT30;64736;50.462;4.850;2022-12-07T13:56:35;6.84;83.19
76040;SHT30;64736;50.462;4.850;2022-12-07T13:59:02;6.75;83.35
76040;SHT30;64736;50.462;4.850;2022-12-07T14:01:31;6.68;83.77
76040;SHT30;64736;50.462;4.850;2022-12-07T14:06:50;6.63;84.85
76040;SHT30;64736;50.462;4.850;2022-12-07T14:09:23;6.86;83.16
76040;SHT30;64736;50.462;4.850;2022-12-07T14:11:50;6.82;83.44
76040;SHT30;64736;50.462;4.850;2022-12-07T14:14:20;6.91;84.38
76040;SHT30;64736;50.462;4.850;2022-12-07T14:19:46;6.85;83.37
76040;SHT30;64736;50.462;4.850;2022-12-07T14:22:34;6.64;83.67
76040;SHT30;64736;50.462;4.850;2022-12-07T14:25:25;6.85;82.69
76040;SHT30;64736;50.462;4.850;2022-12-07T14:30:19;6.86;82.80
76040;SHT30;64736;50.462;4.850;2022-12-07T14:32:46;6.93;82.69
76040;SHT30;64736;50.462;4.850;2022-12-07T14:35:17;6.86;83.21
76040;SHT30;64736;50.462;4.850;2022-12-07T14:37:44;6.64;84.47
76040;SHT30;64736;50.462;4.850;2022-12-07T14:40:16;6.72;83.13
76040;SHT30;64736;50.462;4.850;2022-12-07T14:42:43;6.74;84.19
76040;SHT30;64736;50.462;4.850;2022-12-07T14:45:15;6.63;83.98
76040;SHT30;64736;50.462;4.850;2022-12-07T14:47:41;6.79;83.75
76040;SHT30;64736;50.462;4.850;2022-12-07T14:50:10;6.44;85.32
76040;SHT30;64736;50.462;4.850;2022-12-07T14:52:37;6.75;83.98
76040;SHT30;64736;50.462;4.850;2022-12-07T14:55:03;6.65;83.36
76040;SHT30;64736;50.462;4.850;2022-12-07T14:57:29;6.37;84.19
76040;SHT30;64736;50.462;4.850;2022-12-07T14:59:55;6.42;83.97
76040;SHT30;64736;50.462;4.850;2022-12-07T15:02:20;6.44;84.46
76040;SHT30;64736;50.462;4.850;2022-12-07T15:04:46;6.34;83.83
76040;SHT30;64736;50.462;4.850;2022-12-07T15:07:18;6.20;84.71
76040;SHT30;64736;50.462;4.850;2022-12-07T15:09:45;6.11;84.79
76040;SHT30;64736;50.462;4.850;2022-12-07T15:12:11;5.98;85.57
76040;SHT30;64736;50.462;4.850;2022-12-07T15:14:37;6.09;85.32
76040;SHT30;64736;50.462;4.850;2022-12-07T15:17:02;6.02;84.73
76040;SHT30;64736;50.462;4.850;2022-12-07T15:19:28;6.02;85.02
76040;SHT30;64736;50.462;4.850;2022-12-07T15:21:54;6.00;84.92
76040;SHT30;64736;50.462;4.850;2022-12-07T15:24:20;6.05;85.32
76040;SHT30;64736;50.462;4.850;2022-12-07T15:26:47;6.00;85.22
76040;SHT30;64736;50.462;4.850;2022-12-07T15:29:13;6.02;85.27
76040;SHT30;64736;50.462;4.850;2022-12-07T15:31:40;5.96;85.45
76040;SHT30;64736;50.462;4.850;2022-12-07T15:34:06;5.99;84.82
76040;SHT30;64736;50.462;4.850;2022-12-07T15:36:33;5.96;85.63
76040;SHT30;64736;50.462;4.850;2022-12-07T15:38:59;6.02;85.07
76040;SHT30;64736;50.462;4.850;2022-12-07T15:41:25;5.98;84.83
76040;SHT30;64736;50.462;4.850;2022-12-07T15:43:51;5.95;84.87
76040;SHT30;64736;50.462;4.850;2022-12-07T15:46:37;5.93;85.20
76040;SHT30;64736;50.462;4.850;2022-12-07T15:49:04;5.89;85.25
76040;SHT30;64736;50.462;4.850;2022-12-07T15:51:30;5.90;84.82
76040;SHT30;64736;50.462;4.850;2022-12-07T15:53:57;5.92;85.10
76040;SHT30;64736;50.462;4.850;2022-12-07T15:56:23;5.88;84.69
76040;SHT30;64736;50.462;4.850;2022-12-07T15:58:49;5.90;85.08
76040;SHT30;64736;50.462;4.850;2022-12-07T16:01:19;5.93;84.93
76040;SHT30;64736;50.462;4.850;2022-12-07T16:03:46;5.90;84.94
76040;SHT30;64736;50.462;4.850;2022-12-07T16:06:12;5.92;85.42
76040;SHT30;64736;50.462;4.850;2022-12-07T16:08:44;5.90;84.89
76040;SHT30;64736;50.462;4.850;2022-12-07T16:11:10;5.83;85.55
76040;SHT30;64736;50.462;4.850;2022-12-07T16:13:36;5.90;85.34
76040;SHT30;64736;50.462;4.850;2022-12-07T16:16:03;5.95;85.04
76040;SHT30;64736;50.462;4.850;2022-12-07T16:18:29;5.92;85.12
76040;SHT30;64736;50.462;4.850;2022-12-07T16:20:55;5.90;85.50
76040;SHT30;64736;50.462;4.850;2022-12-07T16:23:21;5.92;85.34
76040;SHT30;64736;50.462;4.850;2022-12-07T16:25:46;5.90;85.38
76040;SHT30;64736;50.462;4.850;2022-12-07T16:28:12;5.79;86.32
76040;SHT30;64736;50.462;4.850;2022-12-07T16:30:38;6.02;85.83
76040;SHT30;64736;50.462;4.850;2022-12-07T16:33:03;6.00;85.11
76040;SHT30;64736;50.462;4.850;2022-12-07T16:35:29;5.95;85.11
76040;SHT30;64736;50.462;4.850;2022-12-07T16:37:55;5.90;85.60
76040;SHT30;64736;50.462;4.850;2022-12-07T16:40:21;5.95;85.79
76040;SHT30;64736;50.462;4.850;2022-12-07T16:42:46;5.82;85.49
76040;SHT30;64736;50.462;4.850;2022-12-07T16:45:12;5.65;88.11
76040;SHT30;64736;50.462;4.850;2022-12-07T16:47:40;4.75;87.81
76040;SHT30;64736;50.462;4.850;2022-12-07T16:50:06;4.77;87.85
76040;SHT30;64736;50.462;4.850;2022-12-07T16:52:33;4.66;89.16
76040;SHT30;64736;50.462;4.850;2022-12-07T16:54:59;4.72;88.47
76040;SHT30;64736;50.462;4.850;2022-12-07T16:57:25;4.89;88.44
76040;SHT30;64736;50.462;4.850;2022-12-07T16:59:51;5.48;86.69
76040;SHT30;64736;50.462;4.850;2022-12-07T17:02:18;5.01;88.49
76040;SHT30;64736;50.462;4.850;2022-12-07T17:04:43;5.30;87.52
76040;SHT30;64736;50.462;4.850;2022-12-07T17:07:10;5.28;88.60
76040;SHT30;64736;50.462;4.850;2022-12-07T17:09:36;5.21;88.73
76040;SHT30;64736;50.462;4.850;2022-12-07T17:12:02;5.35;88.26
76040;SHT30;64736;50.462;4.850;2022-12-07T17:14:27;5.24;87.42
76040;SHT30;64736;50.462;4.850;2022-12-07T17:17:12;5.14;88.96
76040;SHT30;64736;50.462;4.850;2022-12-07T17:19:37;5.48;88.83
76040;SHT30;64736;50.462;4.850;2022-12-07T17:22:04;5.85;86.22
76040;SHT30;64736;50.462;4.850;2022-12-07T17:24:29;5.96;84.42
76040;SHT30;64736;50.462;4.850;2022-12-07T17:26:55;5.93;84.01
76040;SHT30;64736;50.462;4.850;2022-12-07T17:29:21;5.90;84.63
76040;SHT30;64736;50.462;4.850;2022-12-07T17:31:47;5.92;84.37
76040;SHT30;64736;50.462;4.850;2022-12-07T17:34:14;5.93;85.04
76040;SHT30;64736;50.462;4.850;2022-12-07T17:36:41;5.90;86.69
76040;SHT30;64736;50.462;4.850;2022-12-07T17:39:11;5.65;90.38
76040;SHT30;64736;50.462;4.850;2022-12-07T17:41:38;5.48;91.17
76040;SHT30;64736;50.462;4.850;2022-12-07T17:44:23;5.31;93.09
76040;SHT30;64736;50.462;4.850;2022-12-07T17:46:52;5.26;93.09
76040;SHT30;64736;50.462;4.850;2022-12-07T17:49:24;5.01;93.87
76040;SHT30;64736;50.462;4.850;2022-12-07T17:51:50;5.20;93.84
76040;SHT30;64736;50.462;4.850;2022-12-07T17:54:34;4.92;92.04
76040;SHT30;64736;50.462;4.850;2022-12-07T17:57:00;4.96;92.85
76040;SHT30;64736;50.462;4.850;2022-12-07T17:59:26;4.94;91.94
76040;SHT30;64736;50.462;4.850;2022-12-07T18:01:52;5.31;93.02
76040;SHT30;64736;50.462;4.850;2022-12-07T18:04:18;5.23;92.40